• Join FlightAware (Why Join?)
  • Login
  • US Flag 
10:09AM EST


 

Airport Tracker/Info


-or-


 

Live Flight TrackerFlight Track Log ✈ AAL2224 ✈ 30-Jul-2014 ✈ KORD - KLAS

Flight Track Log - Related Links

Times and Time Zones

All times are in EDT time to prevent confusion due to time zone crossing. See the AAL2224 flight status page for this flight to view local times or setup timezone preferences in your user account.

Time Position Orientation Groundspeed Altitude Reporting Facility
EDT Latitude Longitude Course Direction KTS MPH feet Rate Location/Type
10:54AM 41.9681 -87.9575 270° West 185 213 1,500  Level Chicago Center
10:55AM 41.9669 -88.0411 269° West 225 259 3,700 2,160 Climbing Chicago Center
10:56AM 41.9717 -88.1400 274° West 256 295 6,000 2,340 Climbing Chicago Center
10:57AM 41.9953 -88.2339 289° West 265 305 8,600 2,460 Climbing Chicago Center
10:58AM 42.0267 -88.3328 293° West 266 306 11,200 1,740 Climbing Chicago Center
10:59AM 42.1500 -88.7723 270° West  Level FlightAware Approximate
10:59AM 42.0578 -88.4458 290° West 303 349 12,400  Level Chicago Center
11:00AM 42.0900 -88.5472 293° West 320 368 14,100 1,800 Climbing Chicago Center
11:01AM 42.1242 -88.6725 290° West 350 403 16,200 2,040 Climbing Chicago Center
11:02AM 42.1631 -88.8258 289° West 359 413 18,400 1,800 Climbing Chicago Center
11:03AM 42.1594 -88.9608 268° West 386 444 20,000 1,500 Climbing Chicago Center
11:04AM 42.1550 -89.1067 268° West 386 444 21,600 1,500 Climbing Chicago Center
11:05AM 42.1517 -89.2567 268° West 399 459 23,100 1,440 Climbing Chicago Center
11:06AM 42.1458 -89.4386 268° West 403 464 24,600 1,260 Climbing Chicago Center
11:07AM 42.1419 -89.5931 268° West 410 472 25,800 960 Climbing Chicago Center
11:08AM 42.1381 -89.7539 268° West 423 487 26,700 960 Climbing Chicago Center
11:09AM 42.1328 -89.9278 268° West 427 491 27,800 1,140 Climbing Chicago Center
11:10AM 42.1269 -90.0883 267° West 433 498 29,100 1,020 Climbing Chicago Center
11:11AM 42.1206 -90.2469 267° West 431 496 30,000 420 Climbing Chicago Center
11:12AM 42.1153 -90.4042 267° West 425 489 30,000 240 Level Chicago Center
11:13AM 42.1092 -90.5622 267° West 425 489 30,600 480 Climbing Chicago Center
11:14AM 42.1017 -90.7503 267° West 424 488 31,100 480 Climbing Chicago Center
11:15AM 42.0961 -90.9053 267° West 422 486 31,600 420 Climbing Chicago Center
11:17AM 42.1033 -91.0622 274° West 421 484 32,000 180 Climbing Chicago Center
11:18AM 42.1292 -91.2100 283° West 411 473 32,000  Level Chicago Center
11:19AM 42.1544 -91.3603 283° West 411 473 32,000  Level Chicago Center
11:20AM 42.1839 -91.5394 283° West 411 473 32,000  Level Chicago Center
11:21AM 42.2089 -91.6911 283° West 411 473 32,000  Level Chicago Center
11:22AM 42.2339 -91.8411 283° West 411 473 32,000  Level Chicago Center
11:23AM 42.2594 -91.9911 283° West 412 474 32,000  Level Chicago Center
11:24AM 42.2844 -92.1431 283° West 413 475 32,000  Level Chicago Center
11:25AM 42.3092 -92.2939 283° West 413 475 32,000  Level Chicago Center
11:26AM 42.3364 -92.4717 282° West 410 472 32,000  Level Chicago Center
11:27AM 42.3606 -92.6228 282° West 410 472 32,000  Level Chicago Center
11:28AM 42.3836 -92.7722 282° West 410 472 32,000  Level Chicago Center
11:29AM 42.4058 -92.9200 282° West 407 468 32,000  Level Chicago Center
11:30AM 42.4292 -93.0672 282° West 406 467 32,000  Level Chicago Center
11:31AM 42.4561 -93.2431 282° West 403 464 32,000  Level Chicago Center
11:32AM 42.4789 -93.3892 282° West 402 463 32,000  Level Chicago Center
11:33AM 42.5008 -93.5361 281° West 402 463 32,000  Level Chicago Center
11:34AM 42.5211 -93.6811 281° West 399 459 32,000  Level Chicago Center
11:35AM 42.5433 -93.8289 282° West 399 459 32,000  Level Chicago Center
11:36AM 42.5683 -94.0019 281° West 395 455 32,000  Level Chicago Center
11:37AM 42.5939 -94.1794 281° West 397 457 32,000  Level Minneapolis Center
11:39AM 42.6128 -94.3269 280° West 399 459 32,000  Level Minneapolis Center
11:40AM 42.6086 -94.4792 268° West 403 464 32,000  Level Minneapolis Center
11:41AM 42.6053 -94.6494 269° West 404 465 32,000  Level Minneapolis Center
11:42AM 42.6033 -94.8008 269° West 404 465 32,000  Level Minneapolis Center
11:43AM 42.6003 -94.9531 268° West 404 465 32,000  Level Minneapolis Center
11:44AM 42.5969 -95.1400 269° West 411 473 32,000  Level Minneapolis Center
11:45AM 42.5928 -95.2917 268° West 410 472 32,000  Level Minneapolis Center
11:46AM 42.5903 -95.4431 269° West 406 467 32,000  Level Minneapolis Center
11:47AM 42.5856 -95.5936 268° West 403 464 32,000  Level Minneapolis Center
11:48AM 42.5825 -95.7422 268° West 401 461 32,000  Level Minneapolis Center
11:49AM 42.5794 -95.8914 268° West 398 458 32,000  Level Minneapolis Center
11:50AM 42.5747 -96.0661 268° West 393 452 32,000  Level Minneapolis Center
11:51AM 42.5692 -96.2111 267° West 388 447 32,000  Level Minneapolis Center
11:52AM 42.5650 -96.3589 268° West 389 448 32,000  Level Minneapolis Center
11:53AM 42.5606 -96.5039 268° West 389 448 32,000  Level Minneapolis Center
11:54AM 42.5553 -96.6478 267° West 388 447 32,000  Level Minneapolis Center
11:55AM 42.5489 -96.8247 267° West 389 448 32,000  Level Minneapolis Center
11:56AM 42.5433 -96.9714 267° West 389 448 32,000  Level Minneapolis Center
11:57AM 42.5400 -97.1167 268° West 389 448 32,000  Level Minneapolis Center
11:58AM 42.5353 -97.2633 268° West 389 448 32,000  Level Minneapolis Center
11:59AM 42.5300 -97.4097 267° West 389 448 32,000  Level Minneapolis Center
12:00PM 42.5233 -97.5869 267° West 390 449 32,000  Level Minneapolis Center
12:01PM 42.5167 -97.7344 267° West 391 450 32,000  Level Minneapolis Center
12:02PM 42.5103 -97.8975 267° West 392 451 32,000  Level Minneapolis Center
12:03PM 42.5025 -98.0478 266° West 395 455 32,000  Level Minneapolis Center
12:04PM 42.4956 -98.1956 266° West 395 455 32,000  Level Minneapolis Center
12:05PM 42.4883 -98.3444 266° West 396 456 32,000  Level Minneapolis Center
12:06PM 42.4808 -98.4942 266° West 396 456 32,000  Level Minneapolis Center
12:08PM 42.4739 -98.6444 266° West 398 458 32,000  Level Minneapolis Center
12:09PM 42.4572 -98.8242 263° West 401 461 32,000  Level Minneapolis Center
12:10PM 42.4428 -98.9747 263° West 402 463 32,000  Level Minneapolis Center
12:11PM 42.4264 -99.1272 262° West 407 468 32,000  Level Minneapolis Center
12:12PM 42.4106 -99.2778 262° West 408 470 32,000  Level Minneapolis Center
12:13PM 42.3947 -99.4308 262° West 408 470 32,000  Level Minneapolis Center
12:14PM 42.3783 -99.5833 262° West 409 471 32,000  Level Minneapolis Center
12:15PM 42.3583 -99.7669 262° West 411 473 32,000  Level Minneapolis Center
12:16PM 42.3431 -99.9197 262° West 414 476 32,000  Level Minneapolis Center
12:17PM 42.3258 -100.0733 261° West 413 475 32,000  Level Minneapolis Center
12:18PM 42.3083 -100.2269 261° West 413 475 32,000  Level Minneapolis Center
12:19PM 42.2914 -100.3792 261° West 413 475 32,000  Level Minneapolis Center
12:20PM 42.2733 -100.5342 261° West 413 475 32,000  Level Minneapolis Center
12:21PM 42.2511 -100.7200 261° West 414 476 32,000  Level Minneapolis Center
12:22PM 42.2269 -100.9264 261° West 422 486 32,000  Level Denver Center
12:23PM 42.2064 -101.0992 261° West 421 484 32,000  Level Denver Center
12:24PM 42.1878 -101.2486 261° West 422 486 32,000  Level Denver Center
12:25PM 42.1658 -101.4219 260° West 422 486 32,000  Level Denver Center
12:27PM 42.1486 -101.5697 261° West 421 484 32,000  Level Denver Center
12:28PM 42.1275 -101.7428 261° West 421 484 32,000  Level Denver Center
12:29PM 42.1086 -101.8906 260° West 421 484 32,000  Level Denver Center
12:30PM 42.0867 -102.0633 260° West 421 484 32,000  Level Denver Center
12:31PM 42.0675 -102.2106 260° West 420 483 32,000  Level Denver Center
12:32PM 42.0442 -102.3836 260° West 421 484 32,000  Level Denver Center
12:33PM 42.0244 -102.5303 260° West 421 484 32,000  Level Denver Center
12:34PM 42.0014 -102.7039 260° West 421 484 32,000  Level Denver Center
12:35PM 41.9819 -102.8533 260° West 421 484 32,000  Level Denver Center
12:36PM 41.9625 -103.0025 260° West 421 484 32,000  Level Denver Center
12:37PM 41.9364 -103.1769 259° West 424 488 32,000  Level Denver Center
12:38PM 41.9169 -103.3258 260° West 424 488 32,000  Level Denver Center
12:39PM 41.8944 -103.5014 260° West 427 491 32,000  Level Denver Center
12:40PM 41.8889 -103.6539 267° West 427 491 32,000  Level Denver Center
12:41PM 41.8825 -103.8294 267° West 426 490 32,000  Level Denver Center
12:42PM 41.8772 -103.9811 267° West 425 489 32,000  Level Denver Center
12:43PM 41.8706 -104.1594 267° West 425 489 32,000  Level Denver Center
12:44PM 41.8644 -104.3122 267° West 426 490 32,000  Level Denver Center
12:45PM 41.8583 -104.4903 267° West 426 490 32,000  Level Denver Center
12:46PM 41.8528 -104.6425 267° West 426 490 32,000  Level Denver Center
12:47PM 41.8461 -104.7972 267° West 429 494 32,000 120 Level Denver Center
12:48PM 41.8392 -104.9756 267° West 429 494 32,300 360 Climbing Denver Center
12:49PM 41.8317 -105.1289 266° West 429 494 32,800 480 Climbing Denver Center
12:50PM 41.8231 -105.3089 266° West 429 494 33,300 480 Climbing Denver Center
12:51PM 41.8144 -105.4603 266° West 429 494 33,800 300 Climbing Denver Center
12:52PM 41.8067 -105.6408 267° West 431 496 34,000 60 Climbing Denver Center
12:53PM 41.7983 -105.7917 266° West 429 494 34,000  Level Denver Center
12:54PM 41.7889 -105.9683 266° West 428 493 34,000  Level Denver Center
12:56PM 41.7811 -106.1194 266° West 427 491 34,000  Level Denver Center
12:57PM 41.7708 -106.2981 266° West 429 494 34,000  Level Denver Center
12:58PM 41.7608 -106.4478 265° West 426 490 34,000  Level Denver Center
12:59PM 41.7539 -106.6150 267° West 426 490 34,000  Level Denver Center
01:00PM 41.7433 -106.7667 265° West 427 491 34,000  Level Denver Center
01:01PM 41.6886 -106.9275 246° West 433 498 34,000  Level Denver Center
01:02PM 41.6258 -107.0575 237° Southwest 434 499 34,000  Level Denver Center
01:03PM 41.5528 -107.2069 237° Southwest 434 499 34,000  Level Denver Center
01:04PM 41.4889 -107.3339 236° Southwest 433 498 34,000  Level Denver Center
01:05PM 41.4164 -107.4800 237° Southwest 428 493 34,000  Level Denver Center
01:06PM 41.3531 -107.6058 236° Southwest 428 493 34,000  Level Denver Center
01:07PM 41.2792 -107.7536 236° Southwest 428 493 34,000  Level Denver Center
01:08PM 41.2147 -107.8803 236° Southwest 429 494 34,000  Level Denver Center
01:09PM 41.1400 -108.0269 236° Southwest 429 494 34,000  Level Denver Center
01:10PM 41.0761 -108.1522 236° Southwest 429 494 34,000  Level Denver Center
01:11PM 41.0017 -108.2986 236° Southwest 429 494 34,000  Level Denver Center
01:12PM 40.9361 -108.4242 235° Southwest 429 494 34,000  Level Denver Center
01:13PM 40.8606 -108.5683 235° Southwest 429 494 34,000  Level Denver Center
01:14PM 40.7961 -108.6914 235° Southwest 427 491 34,000  Level Denver Center
01:15PM 40.7311 -108.8150 235° Southwest 426 490 34,000  Level Denver Center
01:16PM 40.6650 -108.9408 235° Southwest 424 488 34,000  Level Denver Center
01:17PM 40.5864 -109.0869 235° Southwest 413 475 34,000  Level Denver Center
01:19PM 40.4964 -109.2547 235° Southwest 406 467 34,000  Level Salt Lake Center
01:19PM 40.4583 -109.3278 236° Southwest 402 463 34,000  Level Denver Center
01:20PM 40.3953 -109.4442 235° Southwest 399 459 34,000  Level Denver Center
01:21PM 40.3317 -109.5619 235° Southwest 399 459 34,000  Level Denver Center
01:22PM 40.2539 -109.7058 235° Southwest 400 460 34,000  Level Denver Center
01:23PM 40.1878 -109.8242 234° Southwest 402 463 34,000  Level Denver Center
01:24PM 40.1225 -109.9442 235° Southwest 404 465 34,000  Level Denver Center
01:26PM 40.0569 -110.0647 235° Southwest 407 468 34,000  Level Denver Center
01:27PM 39.9914 -110.1825 234° Southwest 407 468 34,000  Level Denver Center
01:28PM 39.9125 -110.3242 234° Southwest 407 468 34,000  Level Denver Center
01:29PM 39.8461 -110.4439 234° Southwest 407 468 34,000  Level Denver Center
01:30PM 39.7803 -110.5608 234° Southwest 406 467 34,000  Level Denver Center
01:31PM 39.7136 -110.6797 234° Southwest 407 468 34,000  Level Denver Center
01:32PM 39.6458 -110.7978 233° Southwest 407 468 34,000  Level Denver Center
01:33PM 39.5794 -110.9169 234° Southwest 407 468 34,000  Level Denver Center
01:34PM 39.4747 -111.1069 235° Southwest 407 468 34,000  Level Salt Lake Center
01:35PM 39.4078 -111.2256 234° Southwest 407 468 34,000  Level Salt Lake Center
01:36PM 39.3428 -111.3397 234° Southwest 408 470 34,000  Level Salt Lake Center
01:37PM 39.2758 -111.4564 233° Southwest 408 470 34,000  Level Salt Lake Center
01:38PM 39.1997 -111.5919 234° Southwest 408 470 34,000  Level Salt Lake Center
01:39PM 39.1317 -111.7069 233° Southwest 408 470 34,000  Level Salt Lake Center
01:40PM 39.0644 -111.8239 234° Southwest 408 470 34,000  Level Salt Lake Center
01:41PM 38.9983 -111.9422 234° Southwest 408 470 34,000  Level Salt Lake Center
01:43PM 38.9169 -112.0789 233° Southwest 406 467 34,000  Level Salt Lake Center
01:44PM 38.8489 -112.1917 232° Southwest 404 465 34,000  Level Salt Lake Center
01:45PM 38.7833 -112.3075 234° Southwest 404 465 34,000  Level Salt Lake Center
01:46PM 38.7158 -112.4217 233° Southwest 403 464 34,000  Level Salt Lake Center
01:47PM 38.6483 -112.5350 233° Southwest 403 464 34,000  Level Salt Lake Center
01:48PM 38.5667 -112.6697 232° Southwest 403 464 34,000  Level Salt Lake Center
01:49PM 38.4989 -112.7839 233° Southwest 403 464 34,000 -60 Level Salt Lake Center
01:50PM 38.4314 -112.8989 233° Southwest 404 465 33,900 -300 Descending Salt Lake Center
01:51PM 38.3617 -113.0094 231° Southwest 404 465 33,400 -540 Descending Salt Lake Center
01:52PM 38.2589 -113.0778 208° Southwest 421 484 32,900 -540 Descending Salt Lake Center
01:53PM 38.1531 -113.1408 205° Southwest 421 484 32,400 -480 Descending Salt Lake Center
01:54PM 38.0250 -113.2192 206° Southwest 426 490 32,000 -240 Descending Salt Lake Center
01:55PM 37.9181 -113.2861 206° Southwest 429 494 32,000  Level Salt Lake Center
01:56PM 37.8100 -113.3503 205° Southwest 431 496 32,000  Level Salt Lake Center
01:57PM 37.7025 -113.4147 205° Southwest 430 495 32,000  Level Salt Lake Center
01:58PM 37.5728 -113.4922 205° Southwest 431 496 32,000  Level Salt Lake Center
01:59PM 37.4658 -113.5558 205° Southwest 431 496 32,000  Level Salt Lake Center
02:00PM 37.3600 -113.6186 205° Southwest 429 494 32,000 -300 Level Salt Lake Center
02:01PM 37.2742 -113.6708 206° Southwest 430 495 31,500 -1,080 Descending Los Angeles Center
02:02PM 37.1664 -113.7347 205° Southwest 430 495 30,100 -1,620 Descending Los Angeles Center
02:03PM 37.0606 -113.7964 205° Southwest 426 490 28,200 -1,920 Descending Los Angeles Center
02:04PM 36.9569 -113.8592 206° Southwest 420 483 26,200 -2,040 Descending Los Angeles Center
02:05PM 36.8517 -113.9211 205° Southwest 411 473 24,100 -2,100 Descending Los Angeles Center
02:06PM 36.7558 -113.9783 206° Southwest 404 465 21,900 -2,520 Descending Los Angeles Center
02:07PM 36.6314 -114.0519 205° Southwest 406 467 18,900 -2,700 Descending Los Angeles Center
02:08PM 36.5486 -114.1433 222° Southwest 408 470 16,400 -2,580 Descending Los Angeles Center
02:09PM 36.4925 -114.2711 241° Southwest 402 463 13,700 -2,580 Descending Los Angeles Center
02:10PM 36.4686 -114.3206 239° Southwest 392 451 12,700 -1,560 Descending Los Angeles Center
02:10PM 36.4361 -114.3828 237° Southwest 387 445 12,100 -780 Descending Los Angeles Center
02:10PM 36.4078 -114.4058 213° Southwest 362 417 12,000 -120 Descending Los Angeles Center
02:11PM 36.3583 -114.4436 212° Southwest 337 388 12,000  Level Los Angeles Center
02:12PM 36.3208 -114.4728 212° Southwest 303 349 12,000 -120 Level Los Angeles Center
02:12PM 36.2850 -114.5011 213° Southwest 317 365 11,900 -840 Descending Los Angeles Center
02:13PM 36.2436 -114.5339 213° Southwest 308 354 11,100 -1,380 Descending Los Angeles Center
02:13PM 36.2139 -114.5611 216° Southwest 314 361 10,500 -1,920 Descending Los Angeles Center
02:14PM 36.1811 -114.6031 226° Southwest 299 344 9,200 -2,040 Descending Los Angeles Center
02:14PM 36.1433 -114.6472 223° Southwest 304 350 8,400 -1,080 Descending Los Angeles Center
02:15PM 36.1197 -114.6769 225° Southwest 287 330 8,100 -420 Descending Los Angeles Center
02:15PM 36.0881 -114.7122 222° Southwest 291 335 8,000 -120 Descending Los Angeles Center
02:16PM 36.0725 -114.7381 233° Southwest 247 284 8,000 -420 Level Los Angeles Center
02:16PM 36.0725 -114.7839 270° West 257 296 7,600 -900 Descending Los Angeles Center
02:17PM 36.0725 -114.8156 270° West 211 243 7,100 -1,200 Descending Los Angeles Center
02:17PM 36.0728 -114.8556 271° West 226 260 6,400 -1,320 Descending Los Angeles Center
02:18PM 36.0725 -114.8847 269° West 200 230 5,800 -1,380 Descending Los Angeles Center
02:18PM 36.0736 -114.9311 272° West 207 238 5,000 -1,200 Descending Los Angeles Center
02:19PM 36.0731 -114.9564 268° West 191 220 4,600 -1,020 Descending Los Angeles Center
02:19PM 36.0736 -114.9933 271° West 188 216 4,000 -1,020 Descending Los Angeles Center
02:20PM 36.0739 -115.0200 271° West 188 216 3,600 -1,020 Descending Los Angeles Center
02:20PM 36.0736 -115.0608 270° West 186 214 3,000 -900 Descending Los Angeles Center
02:21PM 36.0728 -115.0736 265° West 158 182 2,800 -780 Descending Los Angeles Center
02:22PM 36.0733 -115.1128 271° West 156 180 2,200 -780 Descending Los Angeles Center